Time;durP1;ratioP1;P1;durP2;ratioP2;P2;SDS_P1;SDS_P2;PMS_P1;PMS_P2;Temp;Humidity;BMP_temperature;BMP_pressure;BME280_temperature;BME280_humidity;BME280_pressure;Samples;Min_cycle;Max_cycle;Signal;HPM_P1;HPM_P2
2023/03/14 00:01:20;;;;;;;1999.90;999.90;;;11.80;99.90;;;;;;5013507;28;20057;-77
2023/03/14 00:03:46;;;;;;;1999.90;999.90;;;11.90;99.90;;;;;;5014047;28;20049;-79
2023/03/14 00:06:12;;;;;;;1999.90;999.90;;;11.80;99.90;;;;;;5012809;28;20477;-78
2023/03/14 00:08:38;;;;;;;1999.90;999.90;;;11.90;99.90;;;;;;5014339;28;20103;-77
2023/03/14 00:11:09;;;;;;;1999.90;999.90;;;11.80;99.90;;;;;;5013407;28;20109;-77
2023/03/14 00:13:35;;;;;;;1999.90;999.90;;;11.90;99.90;;;;;;5014032;28;20079;-76
2023/03/14 00:16:10;;;;;;;1999.90;999.90;;;11.90;99.90;;;;;;5013794;28;20396;-73
2023/03/14 00:18:36;;;;;;;1999.90;999.90;;;11.90;99.90;;;;;;5012712;28;20450;-74
2023/03/14 00:21:03;;;;;;;1999.90;999.90;;;11.90;99.90;;;;;;5013541;28;20104;-77
2023/03/14 00:23:30;;;;;;;1999.90;999.90;;;11.90;99.90;;;;;;5032254;28;20025;-77
2023/03/14 00:26:03;;;;;;;1999.90;999.90;;;11.90;99.90;;;;;;5033755;28;20021;-75
2023/03/14 00:28:29;;;;;;;1999.90;999.90;;;11.80;99.90;;;;;;5033429;28;20043;-75
2023/03/14 00:30:54;;;;;;;1999.90;999.90;;;11.80;99.90;;;;;;5033563;28;20033;-75
2023/03/14 00:33:20;;;;;;;1999.90;999.90;;;11.80;99.90;;;;;;5033683;28;20064;-76
2023/03/14 00:35:57;;;;;;;1999.90;999.90;;;11.80;99.90;;;;;;5033255;28;20030;-76
2023/03/14 00:38:24;;;;;;;1999.90;999.90;;;11.80;99.90;;;;;;5033573;28;20025;-76
2023/03/14 00:40:50;;;;;;;1999.90;999.90;;;11.70;99.90;;;;;;5032861;28;20029;-76
2023/03/14 00:43:16;;;;;;;1999.90;999.90;;;11.70;99.90;;;;;;5033195;28;20026;-75
2023/03/14 00:45:41;;;;;;;1999.90;999.90;;;11.70;99.90;;;;;;5027790;28;20029;-76
2023/03/14 00:48:07;;;;;;;1999.90;999.90;;;11.70;99.90;;;;;;5013411;28;20120;-76
2023/03/14 00:50:33;;;;;;;1999.90;999.90;;;11.70;99.90;;;;;;5013367;28;20547;-77
2023/03/14 00:52:58;;;;;;;1999.90;999.90;;;11.60;99.90;;;;;;5013122;28;20052;-76
2023/03/14 00:55:24;;;;;;;1999.90;999.90;;;11.60;99.90;;;;;;5013522;28;20029;-74
2023/03/14 00:57:50;;;;;;;1999.90;999.90;;;11.60;99.90;;;;;;5013345;28;20034;-73
2023/03/14 01:00:16;;;;;;;1999.90;999.90;;;11.60;99.90;;;;;;5012677;28;20148;-75
2023/03/14 01:02:42;;;;;;;1999.90;999.90;;;11.60;99.90;;;;;;5013236;28;20096;-73
2023/03/14 01:05:10;;;;;;;1999.90;999.90;;;11.70;99.90;;;;;;5013458;28;20029;-73
2023/03/14 01:07:36;;;;;;;1999.90;999.90;;;11.70;99.90;;;;;;5013144;28;20540;-76
2023/03/14 01:10:03;;;;;;;1999.90;999.90;;;11.60;99.90;;;;;;5002844;28;20061;-73
2023/03/14 01:12:29;;;;;;;1999.90;999.90;;;11.50;99.90;;;;;;4993622;28;20072;-76
2023/03/14 01:14:55;;;;;;;1999.90;999.90;;;11.40;99.90;;;;;;5000668;28;20038;-73
2023/03/14 01:17:21;;;;;;;1999.90;999.90;;;11.30;99.90;;;;;;5012380;28;20022;-72
2023/03/14 01:19:47;;;;;;;1999.90;999.90;;;11.20;99.90;;;;;;5013121;28;20161;-76
2023/03/14 01:22:12;;;;;;;1999.90;999.90;;;11.20;99.90;;;;;;5019508;28;20096;-76
2023/03/14 01:24:38;;;;;;;1999.90;999.90;;;11.10;99.90;;;;;;5032549;28;20467;-76
2023/03/14 01:27:03;;;;;;;1999.90;999.90;;;11.10;99.90;;;;;;5032676;28;20032;-76
2023/03/14 01:29:29;;;;;;;1999.90;999.90;;;11.10;99.90;;;;;;5032741;28;20064;-75
2023/03/14 01:31:55;;;;;;;1999.90;999.90;;;11.00;99.90;;;;;;5033598;28;20022;-73
2023/03/14 01:34:20;;;;;;;1999.90;999.90;;;11.00;99.90;;;;;;5036921;28;20501;-74
2023/03/14 01:36:46;;;;;;;1999.90;999.90;;;10.90;99.90;;;;;;5036817;28;20018;-76
2023/03/14 01:39:15;;;;;;;1999.90;999.90;;;10.90;99.90;;;;;;5036659;28;20032;-75
2023/03/14 01:41:41;;;;;;;1999.90;999.90;;;10.90;99.90;;;;;;5036097;28;20449;-75
2023/03/14 01:44:11;;;;;;;1999.90;999.90;;;10.90;99.90;;;;;;5036723;28;20021;-71
2023/03/14 01:46:45;;;;;;;1999.90;999.90;;;10.90;99.90;;;;;;5023925;28;20413;-72
2023/03/14 01:49:16;;;;;;;1999.90;999.90;;;10.90;99.90;;;;;;5016766;28;20041;-75
2023/03/14 01:51:48;;;;;;;1999.90;999.90;;;10.90;99.90;;;;;;5016484;28;20034;-75
2023/03/14 01:54:13;;;;;;;1999.90;999.90;;;11.00;99.90;;;;;;5016725;28;20040;-75
2023/03/14 01:56:42;;;;;;;1999.90;999.90;;;11.00;99.90;;;;;;5016688;28;20026;-72
2023/03/14 01:59:09;;;;;;;1999.90;999.90;;;10.90;99.90;;;;;;5016739;28;20025;-75
2023/03/14 02:01:35;;;;;;;1999.90;999.90;;;10.80;99.90;;;;;;5015698;28;20022;-75
2023/03/14 02:04:05;;;;;;;1999.90;999.90;;;10.70;99.90;;;;;;5016296;28;20076;-75
2023/03/14 02:06:46;;;;;;;1999.90;999.90;;;10.60;99.90;;;;;;5016527;28;20014;-72
2023/03/14 02:09:12;;;;;;;1999.90;999.90;;;10.60;99.90;;;;;;5011737;28;20042;-75
2023/03/14 02:11:38;;;;;;;1999.90;999.90;;;10.60;99.90;;;;;;4996746;28;20045;-75
2023/03/14 02:14:04;;;;;;;1999.90;999.90;;;10.60;99.90;;;;;;4997059;28;20371;-72
2023/03/14 02:16:30;;;;;;;1999.90;999.90;;;10.60;99.90;;;;;;5011927;28;20555;-75
2023/03/14 02:18:56;;;;;;;1999.90;999.90;;;10.60;99.90;;;;;;5016127;28;20104;-75
2023/03/14 02:21:53;;;;;;;1999.90;999.90;;;10.60;99.90;;;;;;5016282;28;20036;-75
2023/03/14 02:24:26;;;;;;;1999.90;999.90;;;10.60;99.90;;;;;;4996216;28;20034;-72
2023/03/14 02:27:13;;;;;;;1999.90;999.90;;;10.50;99.90;;;;;;4996640;28;20072;-72
2023/03/14 02:29:47;;;;;;;1999.90;999.90;;;10.50;99.90;;;;;;4996082;28;20560;-75
2023/03/14 02:32:14;;;;;;;1999.90;999.90;;;10.40;99.90;;;;;;4996513;28;20080;-72
2023/03/14 02:34:42;;;;;;;1999.90;999.90;;;10.40;99.90;;;;;;4996458;28;20432;-74
2023/03/14 02:37:09;;;;;;;1999.90;999.90;;;10.40;99.90;;;;;;4996218;28;20516;-73
2023/03/14 02:39:40;;;;;;;1999.90;999.90;;;10.30;99.90;;;;;;4997932;28;20390;-76
2023/03/14 02:42:05;;;;;;;1999.90;999.90;;;10.30;99.90;;;;;;5035573;28;20476;-76
2023/03/14 02:44:31;;;;;;;1999.90;999.90;;;10.40;99.90;;;;;;5035536;28;20029;-74
2023/03/14 02:46:57;;;;;;;1999.90;999.90;;;10.40;99.90;;;;;;5020121;28;20053;-74
2023/03/14 02:49:23;;;;;;;1999.90;999.90;;;10.40;99.90;;;;;;5015424;28;20401;-74
2023/03/14 02:51:50;;;;;;;1999.90;999.90;;;10.40;99.90;;;;;;5015736;28;20123;-74
2023/03/14 02:54:16;;;;;;;1999.90;999.90;;;10.40;99.90;;;;;;5015677;28;20018;-74
2023/03/14 02:56:42;;;;;;;1999.90;999.90;;;10.40;99.90;;;;;;5015632;28;20124;-74
2023/03/14 02:59:07;;;;;;;1999.90;999.90;;;10.40;99.90;;;;;;5015766;28;20129;-73
2023/03/14 03:01:34;;;;;;;1999.90;999.90;;;10.40;99.90;;;;;;5014646;28;20046;-74
2023/03/14 03:03:59;;;;;;;1999.90;999.90;;;10.40;99.90;;;;;;5014178;28;20488;-74
2023/03/14 03:06:25;;;;;;;1999.90;999.90;;;10.40;99.90;;;;;;5015225;28;20032;-74
2023/03/14 03:08:51;;;;;;;1999.90;999.90;;;10.40;99.90;;;;;;5014926;28;20026;-74
2023/03/14 03:11:17;;;;;;;1999.90;999.90;;;10.40;99.90;;;;;;4995805;28;20461;-74
2023/03/14 03:13:42;;;;;;;1999.90;999.90;;;10.40;99.90;;;;;;4995609;28;20026;-74
2023/03/14 03:16:08;;;;;;;1999.90;999.90;;;10.40;99.90;;;;;;5007942;28;20503;-74
2023/03/14 03:18:34;;;;;;;1999.90;999.90;;;10.50;99.90;;;;;;5015150;28;20029;-74
2023/03/14 03:21:01;;;;;;;1999.90;999.90;;;10.50;99.90;;;;;;5013793;28;20041;-74
2023/03/14 03:23:27;;;;;;;1999.90;999.90;;;10.60;99.90;;;;;;5015029;28;20093;-74
2023/03/14 03:25:52;;;;;;;1999.90;999.90;;;10.60;99.90;;;;;;5015503;28;20080;-74
2023/03/14 03:28:19;;;;;;;1999.90;999.90;;;10.60;99.90;;;;;;5015162;28;20022;-74
2023/03/14 03:30:45;;;;;;;1999.90;999.90;;;10.60;99.90;;;;;;5014894;28;20041;-74
2023/03/14 03:33:11;;;;;;;1999.90;999.90;;;10.50;99.90;;;;;;5014813;28;20018;-74
2023/03/14 03:36:03;;;;;;;1999.90;999.90;;;10.50;99.90;;;;;;5014758;28;20057;-74
2023/03/14 03:38:29;;;;;;;1999.90;999.90;;;10.40;99.90;;;;;;5013700;28;20402;-73
2023/03/14 03:40:54;;;;;;;1999.90;999.90;;;10.40;99.90;;;;;;5026309;28;20040;-74
2023/03/14 03:43:20;;;;;;;1999.90;999.90;;;10.30;99.90;;;;;;5034427;28;20035;-74
2023/03/14 03:45:45;;;;;;;1999.90;999.90;;;10.30;99.90;;;;;;5028716;28;20030;-74
2023/03/14 03:48:11;;;;;;;1999.90;999.90;;;10.30;99.90;;;;;;5014402;28;20049;-74
2023/03/14 03:50:44;;;;;;;1999.90;999.90;;;10.30;99.90;;;;;;5014620;28;20030;-75
2023/03/14 03:53:10;;;;;;;1999.90;999.90;;;10.20;99.90;;;;;;5014473;28;20075;-74
2023/03/14 03:55:35;;;;;;;1999.90;999.90;;;10.20;99.90;;;;;;5013767;28;20105;-74
2023/03/14 03:58:01;;;;;;;1999.90;999.90;;;10.20;99.90;;;;;;5014509;28;20029;-75
2023/03/14 04:00:27;;;;;;;1999.90;999.90;;;10.20;99.90;;;;;;5014620;28;20127;-73
2023/03/14 04:02:52;;;;;;;1999.90;999.90;;;10.20;99.90;;;;;;5013860;28;20497;-74
2023/03/14 04:05:18;;;;;;;1999.90;999.90;;;10.20;99.90;;;;;;5014373;28;20226;-74
2023/03/14 04:07:44;;;;;;;1999.90;999.90;;;10.10;99.90;;;;;;5014311;28;20030;-74
2023/03/14 04:10:10;;;;;;;1999.90;999.90;;;10.10;99.90;;;;;;5003155;28;20455;-74
2023/03/14 04:12:35;;;;;;;1999.90;999.90;;;10.10;99.90;;;;;;4994078;28;20030;-74
2023/03/14 04:15:01;;;;;;;1999.90;999.90;;;10.20;99.90;;;;;;4998021;28;20021;-74
2023/03/14 04:17:26;;;;;;;1999.90;999.90;;;10.20;99.90;;;;;;5013352;28;20508;-74
2023/03/14 04:19:53;;;;;;;1999.90;999.90;;;10.20;99.90;;;;;;5013890;28;20025;-74
2023/03/14 04:22:19;;;;;;;1999.90;999.90;;;10.10;99.90;;;;;;5017521;28;20108;-73
2023/03/14 04:24:45;;;;;;;1999.90;999.90;;;10.00;99.90;;;;;;5033834;28;20056;-74
2023/03/14 04:27:10;;;;;;;1999.90;999.90;;;10.00;99.90;;;;;;5033785;28;20032;-75
2023/03/14 04:29:36;;;;;;;1999.90;999.90;;;10.00;99.90;;;;;;5033413;28;20022;-74
2023/03/14 04:32:01;;;;;;;1999.90;999.90;;;10.00;99.90;;;;;;5033532;28;20022;-75
2023/03/14 04:34:27;;;;;;;1999.90;999.90;;;10.00;99.90;;;;;;5033566;28;20424;-77
2023/03/14 04:36:52;;;;;;;1999.90;999.90;;;10.00;99.90;;;;;;5033634;28;20026;-77
2023/03/14 04:39:18;;;;;;;1999.90;999.90;;;10.10;99.90;;;;;;5033412;28;20083;-74
2023/03/14 04:41:44;;;;;;;1999.90;999.90;;;10.10;99.90;;;;;;5031552;28;20034;-74
2023/03/14 04:44:10;;;;;;;1999.90;999.90;;;10.20;99.90;;;;;;5033218;28;20072;-76
2023/03/14 04:46:36;;;;;;;1999.90;999.90;;;10.20;99.90;;;;;;5020708;28;20469;-76
2023/03/14 04:49:01;;;;;;;1999.90;999.90;;;10.20;99.90;;;;;;5013472;28;20037;-74
2023/03/14 04:51:27;;;;;;;1999.90;999.90;;;10.30;99.90;;;;;;5013553;28;20076;-77
2023/03/14 04:53:53;;;;;;;1999.90;999.90;;;10.30;99.90;;;;;;5013431;28;20034;-76
2023/03/14 04:56:19;;;;;;;1999.90;999.90;;;10.30;99.90;;;;;;5013253;28;20026;-76
2023/03/14 04:58:44;;;;;;;1999.90;999.90;;;10.20;99.90;;;;;;5013455;28;20034;-76
2023/03/14 05:01:10;;;;;;;1999.90;999.90;;;10.20;99.90;;;;;;5013675;28;20030;-76
2023/03/14 05:03:37;;;;;;;1999.90;999.90;;;10.20;99.90;;;;;;5012673;28;20022;-74
2023/03/14 05:06:04;;;;;;;1999.90;999.90;;;10.10;99.90;;;;;;5012758;28;20072;-76
2023/03/14 05:08:29;;;;;;;1999.90;999.90;;;10.00;99.90;;;;;;5012657;28;20037;-74
2023/03/14 05:10:56;;;;;;;1999.90;999.90;;;9.90;99.90;;;;;;4995794;28;20030;-74
2023/03/14 05:13:22;;;;;;;1999.90;999.90;;;9.90;99.90;;;;;;4993682;28;20084;-75
2023/03/14 05:15:50;;;;;;;1999.90;999.90;;;9.90;99.90;;;;;;5007513;28;20018;-77
2023/03/14 05:18:16;;;;;;;1999.90;999.90;;;9.90;99.90;;;;;;5011684;28;20497;-76
2023/03/14 05:20:43;;;;;;;1999.90;999.90;;;9.70;99.90;;;;;;5013027;28;20036;-75
2023/03/14 05:23:09;;;;;;;1999.90;999.90;;;9.50;99.90;;;;;;5021904;28;20049;-77
2023/03/14 05:25:34;;;;;;;1999.90;999.90;;;9.50;99.90;;;;;;5032748;28;20022;-77
2023/03/14 05:28:00;;;;;;;1999.90;999.90;;;9.50;99.90;;;;;;5032730;28;20385;-77
2023/03/14 05:30:28;;;;;;;1999.90;999.90;;;9.50;99.90;;;;;;5032681;28;20440;-74
2023/03/14 05:32:54;;;;;;;1999.90;999.90;;;9.40;99.90;;;;;;5033060;28;20108;-77
2023/03/14 05:35:19;;;;;;;1999.90;999.90;;;9.40;99.90;;;;;;5064645;28;20522;-74
2023/03/14 05:37:45;;;;;;;1999.90;999.90;;;9.30;99.90;;;;;;5032333;28;20030;-77
2023/03/14 05:40:11;;;;;;;1999.90;999.90;;;9.30;99.90;;;;;;5032312;28;20515;-76
2023/03/14 05:42:37;;;;;;;1999.90;999.90;;;9.30;99.90;;;;;;5032405;28;20110;-74
2023/03/14 05:45:03;;;;;;;1999.90;999.90;;;9.30;99.90;;;;;;5032810;28;20026;-77
2023/03/14 05:47:28;;;;;;;1999.90;999.90;;;9.20;99.90;;;;;;5012714;28;20046;-74
2023/03/14 05:49:54;;;;;;;1999.90;999.90;;;9.10;99.90;;;;;;5013081;28;20030;-75
2023/03/14 05:52:19;;;;;;;1999.90;999.90;;;9.00;99.90;;;;;;5011530;28;20049;-75
2023/03/14 05:54:45;;;;;;;1999.90;999.90;;;9.00;99.90;;;;;;5012422;28;20441;-74
2023/03/14 05:57:11;;;;;;;1999.90;999.90;;;8.90;99.90;;;;;;5015699;28;20025;-75
2023/03/14 05:59:36;;;;;;;1999.90;999.90;;;9.00;99.90;;;;;;5010277;28;20141;-74
2023/03/14 06:02:02;;;;;;;1999.90;999.90;;;8.90;99.90;;;;;;5012563;28;20033;-74
2023/03/14 06:04:28;;;;;;;1999.90;999.90;;;9.00;99.90;;;;;;5011929;28;20053;-74
2023/03/14 06:06:53;;;;;;;1999.90;999.90;;;9.00;99.90;;;;;;5012437;28;20037;-74
2023/03/14 06:09:22;;;;;;;1999.90;999.90;;;9.10;99.90;;;;;;5008081;28;20033;-74
2023/03/14 06:11:47;;;;;;;1999.90;999.90;;;9.10;99.90;;;;;;4992680;28;20019;-74
2023/03/14 06:14:13;;;;;;;1999.90;999.90;;;9.20;99.90;;;;;;4992969;28;20026;-74
2023/03/14 06:16:38;;;;;;;1999.90;999.90;;;9.20;99.90;;;;;;5009350;28;20057;-74
2023/03/14 06:19:04;;;;;;;1999.90;999.90;;;9.20;99.90;;;;;;5014897;28;20104;-74
2023/03/14 06:21:30;;;;;;;1999.90;999.90;;;9.20;99.90;;;;;;5014652;28;20507;-74
2023/03/14 06:23:55;;;;;;;1999.90;999.90;;;9.10;99.90;;;;;;5029940;28;20093;-74
2023/03/14 06:26:22;;;;;;;1999.90;999.90;;;9.10;99.90;;;;;;5035498;28;20017;-75
2023/03/14 06:28:48;;;;;;;1999.90;999.90;;;9.10;99.90;;;;;;5035124;28;20397;-76
2023/03/14 06:31:14;;;;;;;1999.90;999.90;;;9.10;99.90;;;;;;5022924;28;20022;-74
2023/03/14 06:33:39;;;;;;;1999.90;999.90;;;9.10;99.90;;;;;;5015972;28;20034;-75
2023/03/14 06:36:05;;;;;;;1999.90;999.90;;;9.30;99.90;;;;;;5006722;28;20022;-77
2023/03/14 06:38:31;;;;;;;1999.90;999.90;;;9.50;99.90;;;;;;4996163;28;20033;-74
2023/03/14 06:41:02;;;;;;;1999.90;999.90;;;9.50;99.90;;;;;;5020165;28;20373;-78
2023/03/14 06:43:28;;;;;;;1999.90;999.90;;;9.40;99.90;;;;;;5035501;28;20029;-74
2023/03/14 06:45:53;;;;;;;1999.90;999.90;;;9.30;99.90;;;;;;5028496;28;20021;-74
2023/03/14 06:48:19;;;;;;;1999.90;999.90;;;9.20;99.90;;;;;;5015460;28;20064;-75
2023/03/14 06:50:44;;;;;;;1999.90;999.90;;;9.20;99.90;;;;;;5015840;28;20026;-78
2023/03/14 06:53:10;;;;;;;1999.90;999.90;;;9.10;99.90;;;;;;5015470;28;20109;-78
2023/03/14 06:55:36;;;;;;;1999.90;999.90;;;9.10;99.90;;;;;;5019549;28;20022;-78
2023/03/14 06:58:01;;;;;;;1999.90;999.90;;;9.10;99.90;;;;;;5028723;28;20029;-76
2023/03/14 07:00:27;;;;;;;1999.90;999.90;;;9.20;99.90;;;;;;5019613;28;20034;-76
2023/03/14 07:02:52;;;;;;;1999.90;999.90;;;9.20;99.90;;;;;;5013450;28;20033;-75
2023/03/14 07:05:18;;;;;;;1999.90;999.90;;;9.20;99.90;;;;;;5025652;28;20021;-78
2023/03/14 07:07:44;;;;;;;1999.90;999.90;;;9.30;99.90;;;;;;5007962;28;20401;-78
2023/03/14 07:10:10;;;;;;;1999.90;999.90;;;9.30;99.90;;;;;;5004817;28;20489;-76
2023/03/14 07:12:36;;;;;;;1999.90;999.90;;;9.30;99.90;;;;;;5013404;28;20486;-76
2023/03/14 07:15:01;;;;;;;1999.90;999.90;;;9.40;99.90;;;;;;5010368;28;20025;-76
2023/03/14 07:17:27;;;;;;;1999.90;999.90;;;9.50;99.90;;;;;;5015954;28;20033;-76
2023/03/14 07:19:52;;;;;;;1999.90;999.90;;;9.50;99.90;;;;;;5031766;28;20449;-79
2023/03/14 07:22:18;;;;;;;1999.90;999.90;;;9.60;99.90;;;;;;5016976;28;20029;-78
2023/03/14 07:24:44;;;;;;;1999.90;999.90;;;9.70;99.90;;;;;;5003621;28;20046;-76
2023/03/14 07:27:09;;;;;;;1999.90;999.90;;;10.00;99.90;;;;;;5013323;28;20084;-79
2023/03/14 07:29:35;;;;;;;1999.90;999.90;;;10.20;99.90;;;;;;5052299;28;20029;-79
2023/03/14 07:32:00;;;;;;;1999.90;999.90;;;10.30;99.90;;;;;;5009874;28;20141;-76
2023/03/14 07:34:26;;;;;;;1999.90;999.90;;;10.40;99.90;;;;;;5008315;28;20036;-79
2023/03/14 07:36:51;;;;;;;1999.90;999.90;;;10.30;99.90;;;;;;5013266;28;20042;-76
2023/03/14 07:39:17;;;;;;;1999.90;999.90;;;10.20;99.90;;;;;;5017424;28;20057;-76
2023/03/14 07:41:43;;;;;;;1999.90;999.90;;;10.10;99.90;;;;;;5002760;28;20084;-76
2023/03/14 07:44:08;;;;;;;1999.90;999.90;;;10.20;99.90;;;;;;5006722;28;20090;-76
2023/03/14 07:46:34;;;;;;;1999.90;999.90;;;10.30;99.90;;;;;;5017707;28;20405;-79
2023/03/14 07:48:59;;;;;;;1999.90;999.90;;;10.40;99.90;;;;;;5014115;28;20045;-76
2023/03/14 07:51:25;;;;;;;1999.90;999.90;;;11.30;99.90;;;;;;5015758;28;20037;-79
2023/03/14 07:53:50;;;;;;;1999.90;999.90;;;13.10;99.90;;;;;;5003923;28;20041;-78
2023/03/14 07:56:16;;;;;;;1999.90;999.90;;;14.10;99.90;;;;;;5008068;28;20045;-79
2023/03/14 07:58:42;;;;;;;1999.90;999.90;;;13.80;99.90;;;;;;5017946;28;20056;-77
2023/03/14 08:01:07;;;;;;;1999.90;999.90;;;12.40;99.90;;;;;;5015674;28;20161;-78
2023/03/14 08:03:33;;;;;;;1999.90;999.90;;;11.80;99.90;;;;;;5009063;28;20342;-77
2023/03/14 08:05:58;;;;;;;1999.90;999.90;;;11.60;99.90;;;;;;5019076;28;20049;-77
2023/03/14 08:08:24;;;;;;;1999.90;999.90;;;11.60;99.90;;;;;;5011660;28;20053;-77
2023/03/14 08:10:50;;;;;;;1999.90;999.90;;;11.60;99.90;;;;;;5011510;28;20037;-78
2023/03/14 08:13:15;;;;;;;1999.90;999.90;;;11.30;99.90;;;;;;5007029;28;20022;-78
2023/03/14 08:15:41;;;;;;;1999.90;999.90;;;11.20;99.90;;;;;;5015114;28;20078;-77
2023/03/14 08:18:06;;;;;;;1999.90;999.90;;;11.20;99.90;;;;;;5013356;28;20113;-77
2023/03/14 08:20:32;;;;;;;1999.90;999.90;;;11.30;99.90;;;;;;5020744;28;20034;-78
2023/03/14 08:22:59;;;;;;;1999.90;999.90;;;11.20;99.90;;;;;;5011334;28;20117;-79
2023/03/14 08:25:26;;;;;;;1999.90;999.90;;;12.70;99.90;;;;;;5007347;28;20033;-77
2023/03/14 08:27:52;;;;;;;1999.90;999.90;;;12.80;99.90;;;;;;5020142;28;20057;-77
2023/03/14 08:30:19;;;;;;;1999.90;999.90;;;13.40;99.90;;;;;;5020009;28;20076;-77
2023/03/14 08:32:45;;;;;;;1999.90;999.90;;;14.60;99.90;;;;;;5009076;28;20041;-76
2023/03/14 08:35:13;;;;;;;1999.90;999.90;;;16.30;99.90;;;;;;5013852;28;20041;-77
2023/03/14 08:37:39;;;;;;;1999.90;999.90;;;17.00;99.90;;;;;;5006770;28;20584;-78
2023/03/14 08:40:06;;;;;;;1999.90;999.90;;;16.80;99.90;;;;;;5015327;28;20030;-78
2023/03/14 08:42:35;;;;;;;1999.90;999.90;;;16.70;99.90;;;;;;5013787;28;20356;-76
2023/03/14 08:45:01;;;;;;;1999.90;999.90;;;17.40;99.90;;;;;;5011719;28;20108;-78
2023/03/14 08:47:27;;;;;;;1999.90;999.90;;;18.00;99.90;;;;;;5010231;28;20120;-77
2023/03/14 08:49:53;;;;;;;1999.90;999.90;;;17.90;99.90;;;;;;5013541;28;20034;-77
2023/03/14 08:52:18;;;;;;;1999.90;999.90;;;18.10;99.90;;;;;;5010425;28;20425;-79
2023/03/14 08:54:44;;;;;;;1999.90;999.90;;;18.20;99.90;;;;;;5009432;28;20058;-79
2023/03/14 08:57:10;;;;;;;1999.90;999.90;;;15.60;99.90;;;;;;5012129;28;20022;-78
2023/03/14 08:59:35;;;;;;;1999.90;999.90;;;16.60;99.90;;;;;;5018440;28;20531;-79
2023/03/14 09:02:03;;;;;;;1999.90;999.90;;;17.10;99.90;;;;;;5012649;28;20120;-79
2023/03/14 09:04:29;;;;;;;1999.90;999.90;;;17.30;99.90;;;;;;5010571;28;20113;-78
2023/03/14 09:06:57;;;;;;;1999.90;999.90;;;17.60;99.90;;;;;;5009958;28;20436;-79
2023/03/14 09:09:23;;;;;;;1999.90;999.90;;;17.80;99.90;;;;;;5013621;28;20026;-78
2023/03/14 09:11:49;;;;;;;1999.90;999.90;;;19.00;99.90;;;;;;5010222;28;20029;-79
2023/03/14 09:14:15;;;;;;;1999.90;999.90;;;19.20;99.90;;;;;;5007718;28;20558;-78
2023/03/14 09:16:40;;;;;;;1999.90;999.90;;;18.60;99.90;;;;;;5007040;28;20045;-74
2023/03/14 09:19:06;;;;;;;1999.90;999.90;;;18.20;99.90;;;;;;5004202;28;20033;-79
2023/03/14 09:21:32;;;;;;;1999.90;999.90;;;17.70;99.90;;;;;;5019721;28;20040;-78
2023/03/14 09:23:57;;;;;;;1999.90;999.90;;;18.50;99.90;;;;;;5015921;28;20501;-74
2023/03/14 09:26:23;;;;;;;1999.90;999.90;;;18.70;99.90;;;;;;5016050;28;20025;-79
2023/03/14 09:28:48;;;;;;;1999.90;999.90;;;19.10;99.90;;;;;;5012998;28;20049;-75
2023/03/14 09:31:14;;;;;;;1999.90;999.90;;;19.60;99.90;;;;;;5011816;28;20033;-78
2023/03/14 09:33:40;;;;;;;1999.90;999.90;;;17.90;99.90;;;;;;5007225;28;20030;-75
2023/03/14 09:36:07;;;;;;;1999.90;999.90;;;18.60;99.90;;;;;;5001811;28;20056;-75
2023/03/14 09:38:34;;;;;;;1999.90;999.90;;;16.80;99.90;;;;;;5014314;28;20121;-78
2023/03/14 09:41:02;;;;;;;1999.90;999.90;;;17.30;99.90;;;;;;5022341;28;20049;-74
2023/03/14 09:43:31;;;;;;;1999.90;999.90;;;15.90;99.90;;;;;;5008562;28;20447;-74
2023/03/14 09:45:58;;;;;;;1999.90;999.90;;;16.50;99.90;;;;;;5011584;28;20042;-74
2023/03/14 09:48:31;;;;;;;1999.90;999.90;;;15.70;99.90;;;;;;5009311;28;20041;-74
2023/03/14 09:51:02;;;;;;;1999.90;999.90;;;15.20;99.90;;;;;;5024414;28;20041;-74
2023/03/14 09:53:35;;;;;;;1999.90;999.90;;;15.00;99.90;;;;;;5012190;28;20378;-73
2023/03/14 09:56:01;;;;;;;1999.90;999.90;;;14.60;99.90;;;;;;5021566;28;20025;-78
2023/03/14 09:58:27;;;;;;;1999.90;999.90;;;14.60;99.90;;;;;;5018935;28;20431;-74
2023/03/14 10:00:56;;;;;;;1999.90;999.90;;;14.40;99.90;;;;;;5011750;28;20037;-73
2023/03/14 10:03:34;;;;;;;1999.90;999.90;;;14.50;99.90;;;;;;5013813;28;20024;-73
2023/03/14 10:06:01;;;;;;;1999.90;999.90;;;14.20;99.90;;;;;;5012956;28;20496;-77
2023/03/14 10:08:27;;;;;;;1999.90;999.90;;;14.40;99.90;;;;;;5009169;28;20030;-77
2023/03/14 10:10:54;;;;;;;1999.90;999.90;;;14.00;99.90;;;;;;5008321;28;20037;-77
2023/03/14 10:13:26;;;;;;;1999.90;999.90;;;14.20;99.90;;;;;;5011445;28;20034;-73
2023/03/14 10:15:55;;;;;;;1999.90;999.90;;;14.70;99.90;;;;;;5009192;28;20489;-73
2023/03/14 10:18:23;;;;;;;1999.90;999.90;;;14.50;99.90;;;;;;5019186;28;20033;-78
2023/03/14 10:21:02;;;;;;;1999.90;999.90;;;14.50;99.90;;;;;;5020064;28;20041;-73
2023/03/14 10:23:30;;;;;;;1999.90;999.90;;;14.30;99.90;;;;;;5017282;28;20078;-78
2023/03/14 10:26:27;;;;;;;1999.90;999.90;;;14.40;99.90;;;;;;5011926;28;20450;-72
2023/03/14 10:29:01;;;;;;;1999.90;999.90;;;14.50;99.90;;;;;;5027623;28;20032;-72
2023/03/14 10:31:26;;;;;;;1999.90;999.90;;;14.70;99.90;;;;;;5023355;28;20080;-77
2023/03/14 10:34:04;;;;;;;1999.90;999.90;;;14.30;99.90;;;;;;5012274;28;20433;-72
2023/03/14 10:36:33;;;;;;;1999.90;999.90;;;14.30;99.90;;;;;;4994004;28;20073;-77
2023/03/14 10:39:27;;;;;;;1999.90;999.90;;;14.30;99.90;;;;;;5012640;28;20033;-72
2023/03/14 10:42:05;;;;;;;1999.90;999.90;;;14.20;99.90;;;;;;5017374;28;20042;-73
2023/03/14 10:44:32;;;;;;;1999.90;999.90;;;13.90;99.90;;;;;;5010685;28;20025;-72
2023/03/14 10:47:03;;;;;;;1999.90;999.90;;;14.20;99.90;;;;;;5012145;28;20022;-78
2023/03/14 10:49:33;;;;;;;1999.90;999.90;;;14.10;99.90;;;;;;5013267;28;20438;-72
2023/03/14 10:52:25;;;;;;;1999.90;999.90;;;14.20;99.90;;;;;;5011795;28;20453;-72
2023/03/14 10:54:57;;;;;;;1999.90;999.90;;;13.80;99.90;;;;;;5014859;28;20046;-71
2023/03/14 10:57:27;;;;;;;1999.90;999.90;;;13.90;99.90;;;;;;5011637;28;20038;-71
2023/03/14 10:59:58;;;;;;;1999.90;999.90;;;14.20;99.90;;;;;;5007299;28;20512;-77
2023/03/14 11:02:52;;;;;;;1999.90;999.90;;;14.40;99.90;;;;;;5009047;28;20424;-77
2023/03/14 11:05:29;;;;;;;1999.90;999.90;;;14.30;99.90;;;;;;5016168;28;20416;-72
2023/03/14 11:08:02;;;;;;;1999.90;999.90;;;14.10;99.90;;;;;;5009026;28;20033;-72
2023/03/14 11:10:37;;;;;;;1999.90;999.90;;;14.20;99.90;;;;;;5011767;28;20058;-72
2023/03/14 11:13:24;;;;;;;1999.90;999.90;;;14.10;99.90;;;;;;5009120;28;20117;-77
2023/03/14 11:16:16;;;;;;;1999.90;999.90;;;14.00;99.90;;;;;;5005793;28;20140;-77
2023/03/14 11:19:11;;;;;;;1999.90;999.90;;;14.00;99.90;;;;;;5007435;28;20038;-73
2023/03/14 11:22:14;;;;;;;1999.90;999.90;;;14.40;99.90;;;;;;5019807;28;20022;-76
2023/03/14 11:24:44;;;;;;;;;;;13.80;99.90;;;;;;5004383;28;20033;-77
2023/03/14 11:27:21;;;;;;;1999.90;999.90;;;14.10;99.90;;;;;;5003200;28;19921;-78
2023/03/14 11:30:00;;;;;;;1999.90;999.90;;;14.50;99.90;;;;;;5008080;28;20029;-72
2023/03/14 11:32:39;;;;;;;1999.90;999.90;;;14.50;99.90;;;;;;5005705;28;20038;-78
2023/03/14 11:35:34;;;;;;;1999.90;999.90;;;14.50;99.90;;;;;;5004401;28;20093;-72
2023/03/14 11:38:34;;;;;;;1999.90;999.90;;;14.00;99.90;;;;;;5010309;28;20033;-78
2023/03/14 11:41:00;;;;;;;1999.90;999.90;;;13.40;99.90;;;;;;5007638;28;20056;-78
2023/03/14 11:43:42;;;;;;;1999.90;999.90;;;13.10;99.90;;;;;;5009415;28;20105;-72
2023/03/14 11:46:34;;;;;;;1999.90;999.90;;;12.90;99.90;;;;;;5008858;28;20068;-72
2023/03/14 11:49:26;;;;;;;1999.90;999.90;;;13.10;99.90;;;;;;5011796;28;20832;-77
2023/03/14 11:51:57;;;;;;;1999.90;999.90;;;13.10;99.90;;;;;;5011281;28;20501;-78
2023/03/14 11:54:49;;;;;;;1999.90;999.90;;;13.40;99.90;;;;;;5009342;28;20092;-77
2023/03/14 11:57:17;;;;;;;1999.90;999.90;;;13.70;99.90;;;;;;4998811;28;20030;-72
2023/03/14 12:00:16;;;;;;;1999.90;999.90;;;13.60;99.90;;;;;;5001034;28;20042;-72
2023/03/14 12:02:48;;;;;;;1999.90;999.90;;;13.60;99.90;;;;;;5010483;28;20026;-78
2023/03/14 12:05:41;;;;;;;1999.90;999.90;;;14.20;99.90;;;;;;5008765;28;20026;-78
2023/03/14 12:08:09;;;;;;;1999.90;999.90;;;13.90;99.90;;;;;;5003126;28;20049;-72